sensor_id;sensor_type;location;lat;lon;timestamp;temperature;humidity
1716;DHT22;855;48.824;9.220;2023-12-14T00:00:28;8.70;94.60
1716;DHT22;855;48.824;9.220;2023-12-14T00:02:55;8.60;94.90
1716;DHT22;855;48.824;9.220;2023-12-14T00:05:21;8.70;95.00
1716;DHT22;855;48.824;9.220;2023-12-14T00:07:50;8.70;94.90
1716;DHT22;855;48.824;9.220;2023-12-14T00:10:17;8.70;94.40
1716;DHT22;855;48.824;9.220;2023-12-14T00:12:44;8.70;94.20
1716;DHT22;855;48.824;9.220;2023-12-14T00:15:11;8.60;94.60
1716;DHT22;855;48.824;9.220;2023-12-14T00:17:38;8.60;94.60
1716;DHT22;855;48.824;9.220;2023-12-14T00:20:06;8.70;94.50
1716;DHT22;855;48.824;9.220;2023-12-14T00:22:33;8.50;94.40
1716;DHT22;855;48.824;9.220;2023-12-14T00:25:01;8.50;94.70
1716;DHT22;855;48.824;9.220;2023-12-14T00:27:28;8.40;94.70
1716;DHT22;855;48.824;9.220;2023-12-14T00:29:55;8.30;95.00
1716;DHT22;855;48.824;9.220;2023-12-14T00:32:22;8.40;95.30
1716;DHT22;855;48.824;9.220;2023-12-14T00:34:48;8.40;95.30
1716;DHT22;855;48.824;9.220;2023-12-14T00:37:15;8.50;95.30
1716;DHT22;855;48.824;9.220;2023-12-14T00:39:42;8.50;95.40
1716;DHT22;855;48.824;9.220;2023-12-14T00:42:10;8.60;95.40
1716;DHT22;855;48.824;9.220;2023-12-14T00:44:37;8.70;95.20
1716;DHT22;855;48.824;9.220;2023-12-14T00:47:04;8.70;94.90
1716;DHT22;855;48.824;9.220;2023-12-14T00:49:30;8.80;94.90
1716;DHT22;855;48.824;9.220;2023-12-14T00:51:57;8.80;94.50
1716;DHT22;855;48.824;9.220;2023-12-14T00:54:24;8.90;94.50
1716;DHT22;855;48.824;9.220;2023-12-14T00:56:51;8.90;94.50
1716;DHT22;855;48.824;9.220;2023-12-14T00:59:19;9.00;94.30
1716;DHT22;855;48.824;9.220;2023-12-14T01:01:46;8.90;94.00
1716;DHT22;855;48.824;9.220;2023-12-14T01:04:12;8.80;94.00
1716;DHT22;855;48.824;9.220;2023-12-14T01:06:39;8.90;94.10
1716;DHT22;855;48.824;9.220;2023-12-14T01:09:06;8.90;94.20
1716;DHT22;855;48.824;9.220;2023-12-14T01:11:33;8.90;94.20
1716;DHT22;855;48.824;9.220;2023-12-14T01:14:00;8.90;94.10
1716;DHT22;855;48.824;9.220;2023-12-14T01:16:28;9.00;94.20
1716;DHT22;855;48.824;9.220;2023-12-14T01:18:55;8.90;94.10
1716;DHT22;855;48.824;9.220;2023-12-14T01:21:22;8.90;94.20
1716;DHT22;855;48.824;9.220;2023-12-14T01:23:49;9.00;94.40
1716;DHT22;855;48.824;9.220;2023-12-14T01:26:15;8.90;94.40
1716;DHT22;855;48.824;9.220;2023-12-14T01:28:43;9.00;94.50
1716;DHT22;855;48.824;9.220;2023-12-14T01:31:10;9.10;94.50
1716;DHT22;855;48.824;9.220;2023-12-14T01:33:38;9.10;94.50
1716;DHT22;855;48.824;9.220;2023-12-14T01:36:06;9.20;94.30
1716;DHT22;855;48.824;9.220;2023-12-14T01:38:33;9.20;94.10
1716;DHT22;855;48.824;9.220;2023-12-14T01:40:59;9.20;94.10
1716;DHT22;855;48.824;9.220;2023-12-14T01:43:26;9.10;94.00
1716;DHT22;855;48.824;9.220;2023-12-14T01:45:53;9.20;94.20
1716;DHT22;855;48.824;9.220;2023-12-14T01:48:20;9.20;93.90
1716;DHT22;855;48.824;9.220;2023-12-14T01:50:48;9.20;94.00
1716;DHT22;855;48.824;9.220;2023-12-14T01:53:15;9.30;93.80
1716;DHT22;855;48.824;9.220;2023-12-14T01:55:41;9.20;93.60
1716;DHT22;855;48.824;9.220;2023-12-14T01:58:08;9.30;93.70
1716;DHT22;855;48.824;9.220;2023-12-14T02:00:39;9.20;93.60
1716;DHT22;855;48.824;9.220;2023-12-14T02:03:07;9.20;93.90
1716;DHT22;855;48.824;9.220;2023-12-14T02:05:36;9.20;94.00
1716;DHT22;855;48.824;9.220;2023-12-14T02:08:05;9.20;94.00
1716;DHT22;855;48.824;9.220;2023-12-14T02:10:31;9.20;93.90
1716;DHT22;855;48.824;9.220;2023-12-14T02:12:58;9.20;94.00
1716;DHT22;855;48.824;9.220;2023-12-14T02:15:25;9.30;93.80
1716;DHT22;855;48.824;9.220;2023-12-14T02:17:52;9.30;93.70
1716;DHT22;855;48.824;9.220;2023-12-14T02:20:18;9.40;93.80
1716;DHT22;855;48.824;9.220;2023-12-14T02:22:50;9.50;93.70
1716;DHT22;855;48.824;9.220;2023-12-14T02:25:17;9.50;93.60
1716;DHT22;855;48.824;9.220;2023-12-14T02:27:44;9.60;93.50
1716;DHT22;855;48.824;9.220;2023-12-14T02:30:11;9.70;93.40
1716;DHT22;855;48.824;9.220;2023-12-14T02:32:39;9.70;93.20
1716;DHT22;855;48.824;9.220;2023-12-14T02:35:06;9.60;93.00
1716;DHT22;855;48.824;9.220;2023-12-14T02:37:33;9.60;93.20
1716;DHT22;855;48.824;9.220;2023-12-14T02:40:04;9.70;93.20
1716;DHT22;855;48.824;9.220;2023-12-14T02:42:32;9.70;93.20
1716;DHT22;855;48.824;9.220;2023-12-14T02:44:59;9.70;93.20
1716;DHT22;855;48.824;9.220;2023-12-14T02:47:27;9.60;93.40
1716;DHT22;855;48.824;9.220;2023-12-14T02:49:54;9.50;93.60
1716;DHT22;855;48.824;9.220;2023-12-14T02:52:21;9.50;93.80
1716;DHT22;855;48.824;9.220;2023-12-14T02:54:48;9.50;93.90
1716;DHT22;855;48.824;9.220;2023-12-14T02:57:16;9.50;93.90
1716;DHT22;855;48.824;9.220;2023-12-14T02:59:43;9.60;93.90
1716;DHT22;855;48.824;9.220;2023-12-14T03:02:09;9.60;93.80
1716;DHT22;855;48.824;9.220;2023-12-14T03:04:37;9.70;93.60
1716;DHT22;855;48.824;9.220;2023-12-14T03:07:16;9.80;93.60
1716;DHT22;855;48.824;9.220;2023-12-14T03:09:44;9.80;93.50
1716;DHT22;855;48.824;9.220;2023-12-14T03:12:11;9.80;93.30
1716;DHT22;855;48.824;9.220;2023-12-14T03:14:39;9.80;93.20
1716;DHT22;855;48.824;9.220;2023-12-14T03:17:07;9.90;93.20
1716;DHT22;855;48.824;9.220;2023-12-14T03:19:38;9.90;93.20
1716;DHT22;855;48.824;9.220;2023-12-14T03:22:05;9.90;93.20
1716;DHT22;855;48.824;9.220;2023-12-14T03:24:32;9.90;93.30
1716;DHT22;855;48.824;9.220;2023-12-14T03:26:59;9.80;93.20
1716;DHT22;855;48.824;9.220;2023-12-14T03:29:27;9.80;93.30
1716;DHT22;855;48.824;9.220;2023-12-14T03:31:55;9.80;93.30
1716;DHT22;855;48.824;9.220;2023-12-14T03:34:21;9.80;93.20
1716;DHT22;855;48.824;9.220;2023-12-14T03:36:48;9.70;93.30
1716;DHT22;855;48.824;9.220;2023-12-14T03:39:15;9.60;93.60
1716;DHT22;855;48.824;9.220;2023-12-14T03:41:42;9.50;93.70
1716;DHT22;855;48.824;9.220;2023-12-14T03:44:09;9.50;93.70
1716;DHT22;855;48.824;9.220;2023-12-14T03:46:36;9.60;93.90
1716;DHT22;855;48.824;9.220;2023-12-14T03:49:04;9.60;93.80
1716;DHT22;855;48.824;9.220;2023-12-14T03:51:31;9.60;93.90
1716;DHT22;855;48.824;9.220;2023-12-14T03:53:58;9.60;93.90
1716;DHT22;855;48.824;9.220;2023-12-14T03:56:25;9.60;93.90
1716;DHT22;855;48.824;9.220;2023-12-14T03:58:52;9.60;93.80
1716;DHT22;855;48.824;9.220;2023-12-14T04:01:19;9.60;93.90
1716;DHT22;855;48.824;9.220;2023-12-14T04:03:47;9.50;93.80
1716;DHT22;855;48.824;9.220;2023-12-14T04:06:15;9.50;93.90
1716;DHT22;855;48.824;9.220;2023-12-14T04:08:42;9.50;93.90
1716;DHT22;855;48.824;9.220;2023-12-14T04:11:10;9.50;93.80
1716;DHT22;855;48.824;9.220;2023-12-14T04:13:38;9.50;93.80
1716;DHT22;855;48.824;9.220;2023-12-14T04:16:06;9.50;93.90
1716;DHT22;855;48.824;9.220;2023-12-14T04:18:33;9.60;93.90
1716;DHT22;855;48.824;9.220;2023-12-14T04:21:00;9.60;93.90
1716;DHT22;855;48.824;9.220;2023-12-14T04:23:28;9.60;93.90
1716;DHT22;855;48.824;9.220;2023-12-14T04:25:55;9.70;93.70
1716;DHT22;855;48.824;9.220;2023-12-14T04:28:21;9.80;93.60
1716;DHT22;855;48.824;9.220;2023-12-14T04:30:48;9.80;93.50
1716;DHT22;855;48.824;9.220;2023-12-14T04:33:15;9.80;93.40
1716;DHT22;855;48.824;9.220;2023-12-14T04:35:42;9.90;93.40
1716;DHT22;855;48.824;9.220;2023-12-14T04:38:08;9.90;93.30
1716;DHT22;855;48.824;9.220;2023-12-14T04:40:37;9.90;93.40
1716;DHT22;855;48.824;9.220;2023-12-14T04:43:03;9.90;93.20
1716;DHT22;855;48.824;9.220;2023-12-14T04:45:30;10.00;93.20
1716;DHT22;855;48.824;9.220;2023-12-14T04:47:57;9.90;93.10
1716;DHT22;855;48.824;9.220;2023-12-14T04:50:24;9.80;93.10
1716;DHT22;855;48.824;9.220;2023-12-14T04:52:51;9.70;93.50
1716;DHT22;855;48.824;9.220;2023-12-14T04:55:17;9.60;93.80
1716;DHT22;855;48.824;9.220;2023-12-14T04:57:45;9.70;93.80
1716;DHT22;855;48.824;9.220;2023-12-14T05:00:15;9.70;93.70
1716;DHT22;855;48.824;9.220;2023-12-14T05:02:45;9.70;93.60
1716;DHT22;855;48.824;9.220;2023-12-14T05:05:13;9.60;93.80
1716;DHT22;855;48.824;9.220;2023-12-14T05:07:40;9.70;93.90
1716;DHT22;855;48.824;9.220;2023-12-14T05:10:07;9.70;93.70
1716;DHT22;855;48.824;9.220;2023-12-14T05:12:35;9.70;93.70
1716;DHT22;855;48.824;9.220;2023-12-14T05:15:04;9.80;93.80
1716;DHT22;855;48.824;9.220;2023-12-14T05:17:31;9.80;93.80
1716;DHT22;855;48.824;9.220;2023-12-14T05:19:58;9.80;93.80
1716;DHT22;855;48.824;9.220;2023-12-14T05:22:25;9.80;93.80
1716;DHT22;855;48.824;9.220;2023-12-14T05:24:52;9.90;93.70
1716;DHT22;855;48.824;9.220;2023-12-14T05:27:18;9.90;93.60
1716;DHT22;855;48.824;9.220;2023-12-14T05:29:48;9.90;93.60
1716;DHT22;855;48.824;9.220;2023-12-14T05:32:16;10.00;93.50
1716;DHT22;855;48.824;9.220;2023-12-14T05:34:43;10.00;93.50
1716;DHT22;855;48.824;9.220;2023-12-14T05:37:10;10.00;93.40
1716;DHT22;855;48.824;9.220;2023-12-14T05:39:37;10.10;93.40
1716;DHT22;855;48.824;9.220;2023-12-14T05:42:07;10.10;93.40
1716;DHT22;855;48.824;9.220;2023-12-14T05:44:34;10.10;93.30
1716;DHT22;855;48.824;9.220;2023-12-14T05:47:00;10.10;93.30
1716;DHT22;855;48.824;9.220;2023-12-14T05:49:29;10.10;93.30
1716;DHT22;855;48.824;9.220;2023-12-14T05:51:58;10.10;93.30
1716;DHT22;855;48.824;9.220;2023-12-14T05:54:25;10.00;93.30
1716;DHT22;855;48.824;9.220;2023-12-14T05:56:52;9.80;93.50
1716;DHT22;855;48.824;9.220;2023-12-14T05:59:19;9.80;94.00
1716;DHT22;855;48.824;9.220;2023-12-14T06:01:45;9.80;93.80
1716;DHT22;855;48.824;9.220;2023-12-14T06:04:13;9.80;93.80
1716;DHT22;855;48.824;9.220;2023-12-14T06:06:41;9.70;94.00
1716;DHT22;855;48.824;9.220;2023-12-14T06:09:08;9.60;94.00
1716;DHT22;855;48.824;9.220;2023-12-14T06:11:34;9.50;94.20
1716;DHT22;855;48.824;9.220;2023-12-14T06:14:01;9.40;94.30
1716;DHT22;855;48.824;9.220;2023-12-14T06:16:28;9.40;94.60
1716;DHT22;855;48.824;9.220;2023-12-14T06:18:55;9.50;94.30
1716;DHT22;855;48.824;9.220;2023-12-14T06:21:22;9.50;94.40
1716;DHT22;855;48.824;9.220;2023-12-14T06:23:53;9.40;94.40
1716;DHT22;855;48.824;9.220;2023-12-14T06:26:19;9.30;94.50
1716;DHT22;855;48.824;9.220;2023-12-14T06:28:47;9.40;94.60
1716;DHT22;855;48.824;9.220;2023-12-14T06:31:14;9.50;94.60
1716;DHT22;855;48.824;9.220;2023-12-14T06:33:41;9.60;94.30
1716;DHT22;855;48.824;9.220;2023-12-14T06:36:08;9.60;94.20
1716;DHT22;855;48.824;9.220;2023-12-14T06:38:38;9.70;94.20
1716;DHT22;855;48.824;9.220;2023-12-14T06:41:07;9.70;94.10
1716;DHT22;855;48.824;9.220;2023-12-14T06:43:34;9.80;94.10
1716;DHT22;855;48.824;9.220;2023-12-14T06:46:01;9.80;93.90
1716;DHT22;855;48.824;9.220;2023-12-14T06:48:27;9.80;93.80
1716;DHT22;855;48.824;9.220;2023-12-14T06:50:54;9.80;93.80
1716;DHT22;855;48.824;9.220;2023-12-14T06:53:21;9.80;93.80
1716;DHT22;855;48.824;9.220;2023-12-14T06:55:48;9.80;93.90
1716;DHT22;855;48.824;9.220;2023-12-14T06:58:17;9.90;95.80
1716;DHT22;855;48.824;9.220;2023-12-14T07:00:44;10.00;96.40
1716;DHT22;855;48.824;9.220;2023-12-14T07:03:10;10.20;96.60
1716;DHT22;855;48.824;9.220;2023-12-14T07:05:37;10.30;96.30
1716;DHT22;855;48.824;9.220;2023-12-14T07:08:05;10.40;95.80
1716;DHT22;855;48.824;9.220;2023-12-14T07:10:32;10.40;95.00
1716;DHT22;855;48.824;9.220;2023-12-14T07:12:58;10.40;95.00
1716;DHT22;855;48.824;9.220;2023-12-14T07:15:26;10.60;94.80
1716;DHT22;855;48.824;9.220;2023-12-14T07:17:53;10.60;94.40
1716;DHT22;855;48.824;9.220;2023-12-14T07:20:20;10.80;94.60
1716;DHT22;855;48.824;9.220;2023-12-14T07:22:47;11.00;94.40
1716;DHT22;855;48.824;9.220;2023-12-14T07:25:14;11.10;94.20
1716;DHT22;855;48.824;9.220;2023-12-14T07:27:41;11.20;92.60
1716;DHT22;855;48.824;9.220;2023-12-14T07:30:09;11.20;91.60
1716;DHT22;855;48.824;9.220;2023-12-14T07:32:37;11.00;90.60
1716;DHT22;855;48.824;9.220;2023-12-14T07:35:05;11.00;90.50
1716;DHT22;855;48.824;9.220;2023-12-14T07:37:32;10.90;90.40
1716;DHT22;855;48.824;9.220;2023-12-14T07:39:59;11.00;90.30
1716;DHT22;855;48.824;9.220;2023-12-14T07:42:26;11.00;90.20
1716;DHT22;855;48.824;9.220;2023-12-14T07:44:53;10.80;90.50
1716;DHT22;855;48.824;9.220;2023-12-14T07:47:20;10.80;90.90
1716;DHT22;855;48.824;9.220;2023-12-14T07:49:48;10.70;91.00
1716;DHT22;855;48.824;9.220;2023-12-14T07:52:15;10.60;91.30
1716;DHT22;855;48.824;9.220;2023-12-14T07:54:42;10.60;91.60
1716;DHT22;855;48.824;9.220;2023-12-14T07:57:08;10.60;91.70
1716;DHT22;855;48.824;9.220;2023-12-14T07:59:35;10.60;92.00
1716;DHT22;855;48.824;9.220;2023-12-14T08:02:02;10.60;92.20
1716;DHT22;855;48.824;9.220;2023-12-14T08:04:29;10.60;92.10
1716;DHT22;855;48.824;9.220;2023-12-14T08:06:58;10.60;92.10
1716;DHT22;855;48.824;9.220;2023-12-14T08:09:25;10.60;92.10
1716;DHT22;855;48.824;9.220;2023-12-14T08:11:52;10.70;92.00
1716;DHT22;855;48.824;9.220;2023-12-14T08:14:18;10.70;92.00
1716;DHT22;855;48.824;9.220;2023-12-14T08:16:45;10.80;92.00
1716;DHT22;855;48.824;9.220;2023-12-14T08:19:12;10.80;91.90
1716;DHT22;855;48.824;9.220;2023-12-14T08:21:39;10.80;92.10
1716;DHT22;855;48.824;9.220;2023-12-14T08:24:07;10.90;92.20
1716;DHT22;855;48.824;9.220;2023-12-14T08:26:34;10.90;92.20
1716;DHT22;855;48.824;9.220;2023-12-14T08:29:01;11.00;92.20
1716;DHT22;855;48.824;9.220;2023-12-14T08:31:28;11.00;92.20
1716;DHT22;855;48.824;9.220;2023-12-14T08:33:54;11.00;92.20
1716;DHT22;855;48.824;9.220;2023-12-14T08:36:21;11.00;92.30
1716;DHT22;855;48.824;9.220;2023-12-14T08:38:48;11.10;92.10
1716;DHT22;855;48.824;9.220;2023-12-14T08:41:17;11.10;92.10
1716;DHT22;855;48.824;9.220;2023-12-14T08:43:44;11.00;92.10
1716;DHT22;855;48.824;9.220;2023-12-14T08:46:11;11.00;92.20
1716;DHT22;855;48.824;9.220;2023-12-14T08:48:38;11.00;92.20
1716;DHT22;855;48.824;9.220;2023-12-14T08:51:05;10.90;92.40
1716;DHT22;855;48.824;9.220;2023-12-14T08:53:31;10.90;92.40
1716;DHT22;855;48.824;9.220;2023-12-14T08:55:58;10.80;92.30
1716;DHT22;855;48.824;9.220;2023-12-14T08:58:26;10.70;92.50
1716;DHT22;855;48.824;9.220;2023-12-14T09:00:54;10.60;92.90
1716;DHT22;855;48.824;9.220;2023-12-14T09:03:21;10.70;93.00
1716;DHT22;855;48.824;9.220;2023-12-14T09:05:48;10.70;93.00
1716;DHT22;855;48.824;9.220;2023-12-14T09:08:15;10.70;93.00
1716;DHT22;855;48.824;9.220;2023-12-14T09:10:42;10.70;92.70
1716;DHT22;855;48.824;9.220;2023-12-14T09:13:09;10.60;92.30
1716;DHT22;855;48.824;9.220;2023-12-14T09:15:37;10.70;92.40
1716;DHT22;855;48.824;9.220;2023-12-14T09:18:04;10.70;92.50
1716;DHT22;855;48.824;9.220;2023-12-14T09:20:31;10.70;92.00
1716;DHT22;855;48.824;9.220;2023-12-14T09:22:57;10.80;92.20
1716;DHT22;855;48.824;9.220;2023-12-14T09:25:24;11.00;92.00
1716;DHT22;855;48.824;9.220;2023-12-14T09:27:51;11.10;91.90
1716;DHT22;855;48.824;9.220;2023-12-14T09:30:18;11.30;91.50
1716;DHT22;855;48.824;9.220;2023-12-14T09:32:46;11.30;90.70
1716;DHT22;855;48.824;9.220;2023-12-14T09:35:14;11.20;90.60
1716;DHT22;855;48.824;9.220;2023-12-14T09:37:40;11.10;90.50
1716;DHT22;855;48.824;9.220;2023-12-14T09:40:08;11.10;90.10
1716;DHT22;855;48.824;9.220;2023-12-14T09:42:38;11.10;90.60
1716;DHT22;855;48.824;9.220;2023-12-14T09:45:07;11.00;90.80
1716;DHT22;855;48.824;9.220;2023-12-14T09:47:35;10.90;91.10
1716;DHT22;855;48.824;9.220;2023-12-14T09:50:05;10.90;92.00
1716;DHT22;855;48.824;9.220;2023-12-14T09:52:33;10.90;92.20
1716;DHT22;855;48.824;9.220;2023-12-14T09:55:00;11.00;92.20
1716;DHT22;855;48.824;9.220;2023-12-14T09:57:29;11.00;91.50
1716;DHT22;855;48.824;9.220;2023-12-14T09:59:56;11.00;91.30
1716;DHT22;855;48.824;9.220;2023-12-14T10:02:25;11.00;91.10
1716;DHT22;855;48.824;9.220;2023-12-14T10:04:53;11.00;91.80
1716;DHT22;855;48.824;9.220;2023-12-14T10:07:22;10.90;91.80
1716;DHT22;855;48.824;9.220;2023-12-14T10:09:49;11.00;91.90
1716;DHT22;855;48.824;9.220;2023-12-14T10:12:16;11.10;91.80
1716;DHT22;855;48.824;9.220;2023-12-14T10:14:43;11.10;91.30
1716;DHT22;855;48.824;9.220;2023-12-14T10:17:18;11.00;90.70
1716;DHT22;855;48.824;9.220;2023-12-14T10:19:46;10.80;91.10
1716;DHT22;855;48.824;9.220;2023-12-14T10:22:13;10.70;91.60
1716;DHT22;855;48.824;9.220;2023-12-14T10:24:44;10.70;91.80
1716;DHT22;855;48.824;9.220;2023-12-14T10:27:11;10.70;92.00
1716;DHT22;855;48.824;9.220;2023-12-14T10:29:38;10.70;92.30
1716;DHT22;855;48.824;9.220;2023-12-14T10:32:06;10.70;92.30
1716;DHT22;855;48.824;9.220;2023-12-14T10:34:34;10.80;92.10
1716;DHT22;855;48.824;9.220;2023-12-14T10:37:05;10.80;92.10
1716;DHT22;855;48.824;9.220;2023-12-14T10:39:33;10.80;92.10
1716;DHT22;855;48.824;9.220;2023-12-14T10:42:03;10.80;92.30
1716;DHT22;855;48.824;9.220;2023-12-14T10:44:36;10.60;92.40
1716;DHT22;855;48.824;9.220;2023-12-14T10:50:12;10.20;93.00
1716;DHT22;855;48.824;9.220;2023-12-14T10:52:39;10.10;93.10
1716;DHT22;855;48.824;9.220;2023-12-14T10:55:10;10.10;93.40
1716;DHT22;855;48.824;9.220;2023-12-14T10:57:39;10.10;93.50
1716;DHT22;855;48.824;9.220;2023-12-14T11:00:07;10.10;93.50
1716;DHT22;855;48.824;9.220;2023-12-14T11:02:40;10.20;93.50
1716;DHT22;855;48.824;9.220;2023-12-14T11:05:10;10.30;93.50
1716;DHT22;855;48.824;9.220;2023-12-14T11:07:48;10.30;93.50
1716;DHT22;855;48.824;9.220;2023-12-14T11:10:21;10.30;93.40
1716;DHT22;855;48.824;9.220;2023-12-14T11:12:55;10.40;93.60
1716;DHT22;855;48.824;9.220;2023-12-14T11:15:23;10.40;93.30
1716;DHT22;855;48.824;9.220;2023-12-14T11:20:57;10.60;93.20
1716;DHT22;855;48.824;9.220;2023-12-14T11:23:33;10.60;92.80
1716;DHT22;855;48.824;9.220;2023-12-14T11:26:03;10.60;92.20
1716;DHT22;855;48.824;9.220;2023-12-14T11:28:33;10.50;92.10
1716;DHT22;855;48.824;9.220;2023-12-14T11:31:00;10.50;92.30
1716;DHT22;855;48.824;9.220;2023-12-14T11:33:28;10.30;92.00
1716;DHT22;855;48.824;9.220;2023-12-14T11:35:55;10.30;92.60
1716;DHT22;855;48.824;9.220;2023-12-14T11:38:23;10.30;92.10
1716;DHT22;855;48.824;9.220;2023-12-14T11:40:51;10.40;92.20
1716;DHT22;855;48.824;9.220;2023-12-14T11:43:18;10.30;91.90
1716;DHT22;855;48.824;9.220;2023-12-14T11:45:47;10.30;92.10
1716;DHT22;855;48.824;9.220;2023-12-14T11:48:14;10.30;92.20
1716;DHT22;855;48.824;9.220;2023-12-14T11:50:42;10.30;92.30
1716;DHT22;855;48.824;9.220;2023-12-14T11:53:10;10.40;92.10
1716;DHT22;855;48.824;9.220;2023-12-14T11:55:38;10.40;92.00
1716;DHT22;855;48.824;9.220;2023-12-14T11:58:06;10.30;92.00
1716;DHT22;855;48.824;9.220;2023-12-14T12:00:34;10.30;92.30
1716;DHT22;855;48.824;9.220;2023-12-14T12:03:14;10.40;92.60
1716;DHT22;855;48.824;9.220;2023-12-14T12:05:43;10.40;91.70
1716;DHT22;855;48.824;9.220;2023-12-14T12:08:11;10.40;91.70
1716;DHT22;855;48.824;9.220;2023-12-14T12:10:39;10.40;91.20
1716;DHT22;855;48.824;9.220;2023-12-14T12:13:07;10.30;90.30
1716;DHT22;855;48.824;9.220;2023-12-14T12:15:34;10.30;89.90
1716;DHT22;855;48.824;9.220;2023-12-14T12:18:04;10.20;90.40
1716;DHT22;855;48.824;9.220;2023-12-14T12:20:32;10.20;90.50
1716;DHT22;855;48.824;9.220;2023-12-14T12:23:00;10.10;89.80
1716;DHT22;855;48.824;9.220;2023-12-14T12:25:27;10.00;89.90
1716;DHT22;855;48.824;9.220;2023-12-14T12:27:54;10.00;90.10
1716;DHT22;855;48.824;9.220;2023-12-14T12:30:22;10.10;90.10
1716;DHT22;855;48.824;9.220;2023-12-14T12:32:49;10.20;90.10
1716;DHT22;855;48.824;9.220;2023-12-14T12:35:17;10.20;89.50
1716;DHT22;855;48.824;9.220;2023-12-14T12:37:45;10.30;89.40
1716;DHT22;855;48.824;9.220;2023-12-14T12:40:12;10.30;88.90
1716;DHT22;855;48.824;9.220;2023-12-14T12:42:41;10.20;89.40
1716;DHT22;855;48.824;9.220;2023-12-14T12:45:09;10.20;90.50
1716;DHT22;855;48.824;9.220;2023-12-14T12:47:36;10.30;91.10
1716;DHT22;855;48.824;9.220;2023-12-14T12:50:03;10.20;91.50
1716;DHT22;855;48.824;9.220;2023-12-14T12:52:30;10.30;91.90
1716;DHT22;855;48.824;9.220;2023-12-14T12:54:58;10.30;92.10
1716;DHT22;855;48.824;9.220;2023-12-14T12:57:25;10.40;92.80
1716;DHT22;855;48.824;9.220;2023-12-14T12:59:52;10.60;92.70
1716;DHT22;855;48.824;9.220;2023-12-14T13:02:19;10.70;92.60
1716;DHT22;855;48.824;9.220;2023-12-14T13:04:46;10.70;92.10
1716;DHT22;855;48.824;9.220;2023-12-14T13:07:13;10.80;91.40
1716;DHT22;855;48.824;9.220;2023-12-14T13:09:40;10.70;91.00
1716;DHT22;855;48.824;9.220;2023-12-14T13:12:08;10.70;91.10
1716;DHT22;855;48.824;9.220;2023-12-14T13:14:35;10.60;90.80
1716;DHT22;855;48.824;9.220;2023-12-14T13:17:02;10.40;91.30
1716;DHT22;855;48.824;9.220;2023-12-14T13:19:29;10.30;91.30
1716;DHT22;855;48.824;9.220;2023-12-14T13:21:56;10.10;91.60
1716;DHT22;855;48.824;9.220;2023-12-14T13:24:25;10.10;92.30
1716;DHT22;855;48.824;9.220;2023-12-14T13:26:51;9.90;92.20
1716;DHT22;855;48.824;9.220;2023-12-14T13:29:19;9.90;92.70
1716;DHT22;855;48.824;9.220;2023-12-14T13:31:47;9.90;92.50
1716;DHT22;855;48.824;9.220;2023-12-14T13:34:14;9.90;92.80
1716;DHT22;855;48.824;9.220;2023-12-14T13:36:41;9.90;93.20
1716;DHT22;855;48.824;9.220;2023-12-14T13:39:07;9.80;93.20
1716;DHT22;855;48.824;9.220;2023-12-14T13:41:35;9.60;93.40
1716;DHT22;855;48.824;9.220;2023-12-14T13:44:01;9.70;93.90
1716;DHT22;855;48.824;9.220;2023-12-14T13:46:29;9.70;94.00
1716;DHT22;855;48.824;9.220;2023-12-14T13:48:56;9.70;93.90
1716;DHT22;855;48.824;9.220;2023-12-14T13:51:22;9.60;93.90
1716;DHT22;855;48.824;9.220;2023-12-14T13:53:49;9.60;93.80
1716;DHT22;855;48.824;9.220;2023-12-14T13:56:16;9.50;93.80
1716;DHT22;855;48.824;9.220;2023-12-14T13:58:43;9.60;94.00
1716;DHT22;855;48.824;9.220;2023-12-14T14:01:10;9.60;93.50
1716;DHT22;855;48.824;9.220;2023-12-14T14:03:40;9.50;93.50
1716;DHT22;855;48.824;9.220;2023-12-14T14:06:07;9.50;93.80
1716;DHT22;855;48.824;9.220;2023-12-14T14:08:34;9.50;94.00
1716;DHT22;855;48.824;9.220;2023-12-14T14:11:01;9.60;94.20
1716;DHT22;855;48.824;9.220;2023-12-14T14:13:29;9.70;94.40
1716;DHT22;855;48.824;9.220;2023-12-14T14:15:56;9.70;94.30
1716;DHT22;855;48.824;9.220;2023-12-14T14:18:23;9.70;94.20
1716;DHT22;855;48.824;9.220;2023-12-14T14:20:51;9.60;94.00
1716;DHT22;855;48.824;9.220;2023-12-14T14:23:18;9.60;94.40
1716;DHT22;855;48.824;9.220;2023-12-14T14:25:45;9.70;94.50
1716;DHT22;855;48.824;9.220;2023-12-14T14:28:12;9.60;94.30
1716;DHT22;855;48.824;9.220;2023-12-14T14:30:39;9.60;94.50
1716;DHT22;855;48.824;9.220;2023-12-14T14:33:05;9.50;94.60
1716;DHT22;855;48.824;9.220;2023-12-14T14:35:32;9.60;94.70
1716;DHT22;855;48.824;9.220;2023-12-14T14:38:04;9.50;94.70
1716;DHT22;855;48.824;9.220;2023-12-14T14:40:32;9.50;94.70
1716;DHT22;855;48.824;9.220;2023-12-14T14:42:59;9.50;94.60
1716;DHT22;855;48.824;9.220;2023-12-14T14:45:25;9.50;94.50
1716;DHT22;855;48.824;9.220;2023-12-14T14:47:53;9.50;94.50
1716;DHT22;855;48.824;9.220;2023-12-14T14:50:20;9.40;94.40
1716;DHT22;855;48.824;9.220;2023-12-14T14:52:47;9.30;94.70
1716;DHT22;855;48.824;9.220;2023-12-14T14:55:15;9.40;95.00
1716;DHT22;855;48.824;9.220;2023-12-14T14:57:42;9.60;95.10
1716;DHT22;855;48.824;9.220;2023-12-14T15:00:10;9.60;95.00
1716;DHT22;855;48.824;9.220;2023-12-14T15:02:36;9.70;95.00
1716;DHT22;855;48.824;9.220;2023-12-14T15:05:04;9.60;94.60
1716;DHT22;855;48.824;9.220;2023-12-14T15:07:31;9.70;94.60
1716;DHT22;855;48.824;9.220;2023-12-14T15:09:57;9.80;94.50
1716;DHT22;855;48.824;9.220;2023-12-14T15:12:25;9.90;94.50
1716;DHT22;855;48.824;9.220;2023-12-14T15:14:52;9.90;94.40
1716;DHT22;855;48.824;9.220;2023-12-14T15:17:19;9.90;94.40
1716;DHT22;855;48.824;9.220;2023-12-14T15:19:48;10.00;94.40
1716;DHT22;855;48.824;9.220;2023-12-14T15:22:14;10.00;94.20
1716;DHT22;855;48.824;9.220;2023-12-14T15:24:41;9.90;94.10
1716;DHT22;855;48.824;9.220;2023-12-14T15:27:08;10.00;94.20
1716;DHT22;855;48.824;9.220;2023-12-14T15:29:36;9.90;94.20
1716;DHT22;855;48.824;9.220;2023-12-14T15:32:04;9.90;94.10
1716;DHT22;855;48.824;9.220;2023-12-14T15:34:31;9.80;94.20
1716;DHT22;855;48.824;9.220;2023-12-14T15:36:57;9.70;94.40
1716;DHT22;855;48.824;9.220;2023-12-14T15:39:24;9.70;94.60
1716;DHT22;855;48.824;9.220;2023-12-14T15:41:51;9.70;94.50
1716;DHT22;855;48.824;9.220;2023-12-14T15:44:18;9.70;94.60
1716;DHT22;855;48.824;9.220;2023-12-14T15:46:46;9.80;94.40
1716;DHT22;855;48.824;9.220;2023-12-14T15:49:13;9.70;94.50
1716;DHT22;855;48.824;9.220;2023-12-14T15:51:40;9.70;94.40
1716;DHT22;855;48.824;9.220;2023-12-14T15:54:07;9.80;94.50
1716;DHT22;855;48.824;9.220;2023-12-14T15:56:33;9.60;94.60
1716;DHT22;855;48.824;9.220;2023-12-14T15:59:00;9.60;94.90
1716;DHT22;855;48.824;9.220;2023-12-14T16:01:26;9.50;94.90
1716;DHT22;855;48.824;9.220;2023-12-14T16:03:54;9.50;95.10
1716;DHT22;855;48.824;9.220;2023-12-14T16:06:21;9.50;95.20
1716;DHT22;855;48.824;9.220;2023-12-14T16:08:48;9.50;95.10
1716;DHT22;855;48.824;9.220;2023-12-14T16:11:15;9.40;95.20
1716;DHT22;855;48.824;9.220;2023-12-14T16:13:41;9.50;95.30
1716;DHT22;855;48.824;9.220;2023-12-14T16:16:08;9.50;95.40
1716;DHT22;855;48.824;9.220;2023-12-14T16:18:35;9.40;95.20
1716;DHT22;855;48.824;9.220;2023-12-14T16:21:04;9.40;95.30
1716;DHT22;855;48.824;9.220;2023-12-14T16:23:30;9.50;95.30
1716;DHT22;855;48.824;9.220;2023-12-14T16:26:00;9.60;95.10
1716;DHT22;855;48.824;9.220;2023-12-14T16:28:27;9.70;94.90
1716;DHT22;855;48.824;9.220;2023-12-14T16:30:54;9.70;94.80
1716;DHT22;855;48.824;9.220;2023-12-14T16:33:21;9.70;94.70